createdAt,value
2016-09-06T00:00:30.857Z,52.53
2016-09-06T00:01:30.862Z,52.44
2016-09-06T00:02:31.221Z,52.44
2016-09-06T00:03:30.563Z,52.56
2016-09-06T00:04:30.572Z,52.36
2016-09-06T00:05:30.890Z,52.44
2016-09-06T00:06:30.898Z,52.44
2016-09-06T00:07:30.590Z,52.34
2016-09-06T00:08:30.912Z,52.34
2016-09-06T00:09:30.606Z,52.63
2016-09-06T00:10:30.615Z,52.53
2016-09-06T00:11:30.621Z,52.46
2016-09-06T00:12:30.943Z,52.53
2016-09-06T00:13:31.349Z,52.53
2016-09-06T00:14:30.959Z,52.53
2016-09-06T00:15:30.963Z,52.44
2016-09-06T00:16:30.971Z,52.53
2016-09-06T00:17:31.027Z,52.63
2016-09-06T00:18:30.673Z,52.63
2016-09-06T00:19:30.679Z,52.24
2016-09-06T00:20:30.687Z,52.05
2016-09-06T00:21:31.006Z,51.76
2016-09-06T00:22:31.018Z,51.95
2016-09-06T00:23:30.708Z,52.24
2016-09-06T00:24:31.531Z,51.76
2016-09-06T00:25:31.036Z,51.56
2016-09-06T00:26:31.045Z,51.56
2016-09-06T00:27:30.738Z,51.76
2016-09-06T00:28:30.747Z,51.95
2016-09-06T00:29:31.067Z,51.66
2016-09-06T00:30:30.759Z,51.76
2016-09-06T00:31:31.082Z,51.76
2016-09-06T00:32:31.089Z,51.76
2016-09-06T00:33:31.096Z,51.86
2016-09-06T00:34:30.791Z,51.56
2016-09-06T00:35:31.901Z,51.86
2016-09-06T00:36:31.119Z,52.05
2016-09-06T00:37:31.537Z,51.56
2016-09-06T00:38:30.821Z,51.95
2016-09-06T00:39:30.839Z,52.05
2016-09-06T00:40:31.146Z,51.86
2016-09-06T00:41:30.891Z,51.86
2016-09-06T00:42:30.846Z,51.56
2016-09-06T00:43:31.169Z,51.56
2016-09-06T00:44:30.912Z,51.56
2016-09-06T00:45:31.184Z,51.66
2016-09-06T00:46:31.930Z,51.76
2016-09-06T00:47:30.892Z,51.76
2016-09-06T00:48:31.592Z,51.76
2016-09-06T00:49:31.222Z,51.86
2016-09-06T00:50:31.222Z,51.76
2016-09-06T00:51:31.230Z,51.76
2016-09-06T00:52:31.231Z,51.95
2016-09-06T00:53:30.930Z,51.76
2016-09-06T00:54:31.248Z,51.76
2016-09-06T00:55:31.262Z,51.86
2016-09-06T00:56:31.264Z,51.76
2016-09-06T00:57:32.388Z,51.86
2016-09-06T00:58:31.281Z,51.95
2016-09-06T00:59:31.825Z,51.56
2016-09-06T01:00:31.290Z,51.76
2016-09-06T01:01:31.303Z,51.76
2016-09-06T01:02:30.994Z,51.66
2016-09-06T01:03:31.000Z,52.34
2016-09-06T01:04:31.326Z,51.66
2016-09-06T01:05:31.329Z,51.95
2016-09-06T01:06:31.023Z,51.95
2016-09-06T01:07:31.348Z,51.76
2016-09-06T01:08:32.444Z,51.86
2016-09-06T01:09:31.357Z,51.66
2016-09-06T01:10:31.850Z,52.05
2016-09-06T01:11:31.371Z,51.66
2016-09-06T01:12:31.066Z,51.76
2016-09-06T01:13:31.387Z,52.14
2016-09-06T01:14:31.391Z,51.86
2016-09-06T01:15:31.091Z,51.86
2016-09-06T01:16:31.095Z,52.05
2016-09-06T01:17:31.418Z,51.47
2016-09-06T01:18:31.108Z,51.47
2016-09-06T01:19:32.258Z,51.95
2016-09-06T01:20:31.440Z,52.05
2016-09-06T01:21:32.031Z,51.95
2016-09-06T01:22:31.801Z,51.95
2016-09-06T01:23:31.460Z,52.05
2016-09-06T01:24:31.152Z,52.05
2016-09-06T01:25:31.161Z,52.05
2016-09-06T01:26:31.487Z,52.14
2016-09-06T01:27:31.174Z,51.95
2016-09-06T01:28:31.180Z,52.14
2016-09-06T01:29:31.501Z,52.24
2016-09-06T01:30:32.620Z,52.05
2016-09-06T01:31:31.517Z,51.95
2016-09-06T01:32:32.024Z,51.95
2016-09-06T01:33:31.215Z,52.05
2016-09-06T01:34:31.224Z,51.66
2016-09-06T01:35:31.231Z,51.76
2016-09-06T01:36:31.239Z,52.05
2016-09-06T01:37:31.245Z,52.24
2016-09-06T01:38:31.617Z,51.86
2016-09-06T01:39:31.571Z,52.05
2016-09-06T01:40:31.267Z,52.05
2016-09-06T01:41:32.473Z,52.05
2016-09-06T01:42:31.593Z,52.05
2016-09-06T01:43:32.287Z,51.86
2016-09-06T01:44:31.297Z,51.86
2016-09-06T01:45:31.450Z,51.37
2016-09-06T01:46:31.624Z,51.95
2016-09-06T01:47:31.629Z,51.47
2016-09-06T01:48:31.643Z,51.66
2016-09-06T01:49:31.645Z,51.86
2016-09-06T01:50:31.650Z,52.24
2016-09-06T01:51:31.344Z,51.66
2016-09-06T01:52:32.641Z,51.37
2016-09-06T01:53:31.673Z,51.86
2016-09-06T01:54:32.581Z,51.86
2016-09-06T01:55:31.686Z,51.37
2016-09-06T01:56:31.383Z,51.76
2016-09-06T01:57:31.701Z,51.37
2016-09-06T01:58:31.402Z,51.37
2016-09-06T01:59:31.413Z,51.86
2016-09-06T02:00:31.723Z,51.66
2016-09-06T02:01:31.417Z,51.37
2016-09-06T02:02:31.425Z,51.47
2016-09-06T02:03:31.431Z,51.47
2016-09-06T02:04:31.753Z,51.47
2016-09-06T02:05:31.445Z,51.37
2016-09-06T02:06:31.502Z,51.37
2016-09-06T02:07:31.460Z,51.37
2016-09-06T02:08:31.466Z,51.28
2016-09-06T02:09:31.788Z,51.56
2016-09-06T02:10:31.794Z,50.98
2016-09-06T02:11:31.489Z,51.37
2016-09-06T02:12:31.811Z,51.37
2016-09-06T02:13:31.816Z,51.47
2016-09-06T02:14:31.822Z,51.28
2016-09-06T02:15:31.531Z,51.28
2016-09-06T02:16:32.950Z,51.18
2016-09-06T02:17:31.531Z,51.47
2016-09-06T02:18:31.850Z,51.47
2016-09-06T02:19:31.859Z,51.47
2016-09-06T02:20:31.865Z,51.37
2016-09-06T02:21:31.973Z,51.37
2016-09-06T02:22:31.568Z,51.47
2016-09-06T02:23:31.575Z,51.47
2016-09-06T02:24:31.588Z,51.47
2016-09-06T02:25:31.901Z,51.28
2016-09-06T02:26:31.908Z,51.47
2016-09-06T02:27:31.604Z,51.47
2016-09-06T02:28:31.925Z,51.66
2016-09-06T02:29:31.929Z,51.37
2016-09-06T02:30:31.623Z,51.37
2016-09-06T02:31:31.944Z,51.08
2016-09-06T02:32:31.950Z,51.37
2016-09-06T02:33:31.961Z,51.47
2016-09-06T02:34:31.651Z,51.37
2016-09-06T02:35:31.659Z,51.37
2016-09-06T02:36:31.715Z,51.28
2016-09-06T02:37:31.985Z,51.28
2016-09-06T02:38:31.992Z,51.47
2016-09-06T02:39:32.000Z,51.18
2016-09-06T02:40:31.694Z,51.47
2016-09-06T02:41:31.701Z,51.37
2016-09-06T02:42:32.019Z,51.37
2016-09-06T02:43:31.716Z,51.56
2016-09-06T02:44:31.722Z,51.18
2016-09-06T02:45:31.778Z,51.47
2016-09-06T02:46:31.735Z,51.37
2016-09-06T02:47:32.305Z,51.18
2016-09-06T02:48:32.062Z,51.56
2016-09-06T02:49:32.067Z,51.47
2016-09-06T02:50:31.763Z,51.66
2016-09-06T02:51:32.085Z,51.47
2016-09-06T02:52:31.827Z,51.37
2016-09-06T02:53:32.100Z,51.66
2016-09-06T02:54:32.108Z,51.66
2016-09-06T02:55:32.112Z,51.37
2016-09-06T02:56:32.117Z,51.47
2016-09-06T02:57:32.127Z,51.66
2016-09-06T02:58:32.340Z,51.47
2016-09-06T02:59:31.829Z,51.47
2016-09-06T03:00:32.147Z,51.37
2016-09-06T03:01:32.157Z,51.66
2016-09-06T03:02:31.854Z,51.56
2016-09-06T03:03:31.858Z,51.47
2016-09-06T03:04:32.177Z,51.66
2016-09-06T03:05:32.195Z,51.47
2016-09-06T03:06:32.191Z,51.18
2016-09-06T03:07:32.252Z,51.37
2016-09-06T03:08:31.891Z,51.47
2016-09-06T03:09:32.511Z,51.66
2016-09-06T03:10:31.905Z,51.08
2016-09-06T03:11:32.222Z,51.56
2016-09-06T03:12:31.918Z,51.66
2016-09-06T03:13:32.241Z,51.66
2016-09-06T03:14:32.245Z,51.66
2016-09-06T03:15:31.939Z,51.76
2016-09-06T03:16:31.946Z,51.37
2016-09-06T03:17:31.953Z,51.56
2016-09-06T03:18:31.960Z,51.37
2016-09-06T03:19:32.280Z,51.47
2016-09-06T03:20:32.886Z,51.44
2016-09-06T03:21:31.987Z,51.47
2016-09-06T03:22:32.301Z,51.76
2016-09-06T03:23:32.308Z,51.47
2016-09-06T03:24:32.317Z,51.56
2016-09-06T03:25:32.325Z,51.47
2016-09-06T03:26:32.330Z,51.47
2016-09-06T03:27:32.338Z,51.66
2016-09-06T03:28:32.032Z,51.47
2016-09-06T03:29:32.038Z,51.47
2016-09-06T03:30:32.357Z,51.18
2016-09-06T03:31:32.853Z,50.89
2016-09-06T03:32:32.064Z,50.7
2016-09-06T03:33:32.066Z,51.64
2016-09-06T03:34:32.385Z,51.66
2016-09-06T03:35:32.392Z,51.66
2016-09-06T03:36:32.402Z,51.64
2016-09-06T03:37:32.410Z,51.64
2016-09-06T03:38:32.103Z,51.47
2016-09-06T03:39:32.110Z,51.66
2016-09-06T03:40:32.115Z,51.66
2016-09-06T03:41:32.435Z,51.76
2016-09-06T03:42:33.544Z,51.56
2016-09-06T03:43:32.451Z,51.18
2016-09-06T03:44:32.705Z,50.89
2016-09-06T03:45:32.465Z,51.15
2016-09-06T03:46:32.523Z,51.44
2016-09-06T03:47:32.166Z,51.47
2016-09-06T03:48:32.482Z,50.76
2016-09-06T03:49:32.179Z,50.79
2016-09-06T03:50:32.183Z,50.98
2016-09-06T03:51:32.193Z,51.47
2016-09-06T03:52:32.201Z,51.18
2016-09-06T03:53:32.211Z,51.18
2016-09-06T03:54:32.577Z,50.89
2016-09-06T03:55:32.940Z,50.96
2016-09-06T03:56:32.542Z,51.66
2016-09-06T03:57:32.233Z,51.44
2016-09-06T03:58:32.243Z,51.44
2016-09-06T03:59:32.249Z,51.47
2016-09-06T04:00:32.257Z,51.56
2016-09-06T04:01:32.576Z,51.06
2016-09-06T04:02:32.583Z,51.56
2016-09-06T04:03:32.278Z,51.37
2016-09-06T04:04:32.600Z,51.54
2016-09-06T04:05:33.305Z,51.64
2016-09-06T04:06:32.850Z,51.06
2016-09-06T04:07:32.622Z,51.64
2016-09-06T04:08:32.466Z,51.54
2016-09-06T04:09:32.322Z,51.47
2016-09-06T04:10:32.333Z,50.96
2016-09-06T04:11:32.648Z,51.06
2016-09-06T04:12:32.345Z,50.96
2016-09-06T04:13:32.662Z,51.08
2016-09-06T04:14:32.669Z,50.79
2016-09-06T04:15:32.367Z,51.18
2016-09-06T04:16:32.683Z,51.18
2016-09-06T04:17:33.592Z,51.18
2016-09-06T04:18:32.699Z,50.98
2016-09-06T04:19:32.704Z,51.18
2016-09-06T04:20:32.401Z,51.28
2016-09-06T04:21:32.405Z,50.86
2016-09-06T04:22:32.727Z,50.89
2016-09-06T04:23:32.733Z,51.47
2016-09-06T04:24:32.744Z,50.86
2016-09-06T04:25:32.434Z,51.54
2016-09-06T04:26:32.755Z,50.96
2016-09-06T04:27:32.759Z,51.64
2016-09-06T04:28:33.613Z,51.44
2016-09-06T04:29:32.513Z,51.44
2016-09-06T04:30:32.472Z,51.18
2016-09-06T04:32:32.796Z,51.54
2016-09-06T04:33:32.806Z,51.06
2016-09-06T04:34:32.496Z,50.86
2016-09-06T04:35:32.819Z,50.79
2016-09-06T04:36:32.511Z,50.98
2016-09-06T04:37:32.834Z,51.18
2016-09-06T04:38:32.839Z,51.15
2016-09-06T04:39:32.535Z,51.15
2016-09-06T04:40:32.544Z,51.15
2016-09-06T04:41:32.863Z,50.76
2016-09-06T04:42:32.869Z,51.06
2016-09-06T04:43:32.561Z,50.76
2016-09-06T04:44:32.882Z,51.25
2016-09-06T04:45:32.891Z,51.25
2016-09-06T04:46:32.633Z,51.54
2016-09-06T04:47:32.902Z,50.96
2016-09-06T04:48:33.513Z,51.06
2016-09-06T04:49:32.916Z,51.15
2016-09-06T04:50:32.925Z,51.25
2016-09-06T04:51:32.934Z,51.15
2016-09-06T04:52:32.940Z,51.15
2016-09-06T04:53:32.633Z,50.96
2016-09-06T04:54:32.639Z,51.06
2016-09-06T04:55:32.646Z,51.15
2016-09-06T04:56:32.654Z,51.44
2016-09-06T04:57:32.661Z,50.96
2016-09-06T04:58:33.030Z,51.25
2016-09-06T04:59:33.727Z,51.15
2016-09-06T05:00:32.997Z,50.98
2016-09-06T05:01:33.390Z,50.86
2016-09-06T05:02:32.698Z,51.15
2016-09-06T05:03:33.015Z,51.15
2016-09-06T05:04:32.726Z,51.06
2016-09-06T05:05:33.030Z,51.06
2016-09-06T05:06:33.038Z,51.06
2016-09-06T05:07:33.047Z,51.06
2016-09-06T05:08:32.740Z,51.06
2016-09-06T05:09:33.111Z,51.06
2016-09-06T05:10:34.167Z,50.96
2016-09-06T05:11:33.072Z,51.06
2016-09-06T05:12:33.467Z,51.15
2016-09-06T05:13:32.771Z,51.06
2016-09-06T05:14:32.799Z,50.86
2016-09-06T05:15:33.100Z,51.28
2016-09-06T05:16:32.797Z,51.08
2016-09-06T05:17:33.116Z,51.37
2016-09-06T05:18:33.122Z,51.25
2016-09-06T05:19:33.131Z,51.25
2016-09-06T05:20:32.827Z,51.25
2016-09-06T05:21:32.832Z,51.15
2016-09-06T05:22:33.150Z,50.57
2016-09-06T05:23:33.909Z,50.76
2016-09-06T05:24:33.165Z,50.96
2016-09-06T05:25:32.871Z,51.25
2016-09-06T05:26:33.178Z,51.25
2016-09-06T05:27:32.875Z,50.96
2016-09-06T05:28:33.194Z,50.76
2016-09-06T05:29:33.199Z,50.4
2016-09-06T05:30:32.894Z,50.5
2016-09-06T05:31:32.912Z,50.98
2016-09-06T05:32:32.910Z,50.98
2016-09-06T05:33:33.226Z,50.67
2016-09-06T05:34:34.088Z,50.48
2016-09-06T05:35:32.929Z,50.6
2016-09-06T05:36:32.938Z,50.57
2016-09-06T05:37:32.941Z,50.67
2016-09-06T05:38:32.954Z,50.67
2016-09-06T05:39:32.972Z,50.7
2016-09-06T05:40:33.280Z,50.96
2016-09-06T05:41:32.972Z,50.7
2016-09-06T05:42:32.982Z,50.67
2016-09-06T05:43:33.301Z,50.7
2016-09-06T05:44:33.307Z,50.4
2016-09-06T05:45:34.414Z,50.21
2016-09-06T05:46:33.007Z,50.31
2016-09-06T05:47:33.015Z,50.6
2016-09-06T05:48:33.333Z,50.31
2016-09-06T05:49:33.344Z,50.21
2016-09-06T05:50:33.348Z,50.02
2016-09-06T05:51:33.047Z,50.6
2016-09-06T05:52:33.362Z,50.5
2016-09-06T05:53:33.060Z,49.92
2016-09-06T05:54:33.378Z,50.4
2016-09-06T05:55:33.385Z,49.92
2016-09-06T05:56:33.393Z,49.92
2016-09-06T05:57:33.399Z,50.21
2016-09-06T05:58:33.096Z,49.92
2016-09-06T05:59:33.417Z,50.31
2016-09-06T06:00:33.421Z,50.02
2016-09-06T06:01:33.428Z,50.02
2016-09-06T06:02:33.176Z,50.5
2016-09-06T06:03:33.147Z,50.12
2016-09-06T06:04:33.454Z,50.02
2016-09-06T06:05:33.446Z,50.5
2016-09-06T06:06:33.154Z,50.31
2016-09-06T06:07:33.474Z,50.21
2016-09-06T06:08:33.169Z,50.31
2016-09-06T06:09:33.497Z,50.02
2016-09-06T06:10:33.496Z,50.31
2016-09-06T06:11:33.509Z,50.21
2016-09-06T06:12:33.513Z,50.31
2016-09-06T06:13:33.520Z,50.02
2016-09-06T06:14:33.213Z,49.92
2016-09-06T06:15:33.223Z,50.12
2016-09-06T06:16:33.792Z,50.4
2016-09-06T06:17:33.550Z,50.12
2016-09-06T06:18:33.557Z,50.31
2016-09-06T06:19:33.561Z,49.73
2016-09-06T06:20:33.259Z,49.73
2016-09-06T06:21:33.578Z,50.02
2016-09-06T06:22:33.270Z,50.12
2016-09-06T06:23:33.593Z,50.04
2016-09-06T06:24:33.288Z,49.95
2016-09-06T06:25:33.614Z,49.85
2016-09-06T06:26:33.616Z,49.85
2016-09-06T06:27:34.166Z,49.37
2016-09-06T06:28:33.635Z,49.56
2016-09-06T06:29:33.644Z,49.56
2016-09-06T06:30:33.651Z,49.56
2016-09-06T06:31:33.352Z,49.65
2016-09-06T06:32:33.658Z,49.46
2016-09-06T06:33:33.356Z,49.56
2016-09-06T06:34:33.675Z,49.65
2016-09-06T06:35:33.681Z,49.17
2016-09-06T06:36:33.693Z,49.07
2016-09-06T06:37:33.696Z,49.17
2016-09-06T06:38:34.573Z,48.97
2016-09-06T06:39:33.712Z,48.81
2016-09-06T06:40:33.508Z,49
2016-09-06T06:41:33.466Z,49
2016-09-06T06:42:33.734Z,49.29
2016-09-06T06:43:33.748Z,48.71
2016-09-06T06:44:33.439Z,48.52
2016-09-06T06:45:33.765Z,48.03
2016-09-06T06:46:33.774Z,48.13
2016-09-06T06:47:33.779Z,48.25
2016-09-06T06:48:33.471Z,48.52
2016-09-06T06:49:33.800Z,48.42
2016-09-06T06:50:33.490Z,48.32
2016-09-06T06:51:34.264Z,48.81
2016-09-06T06:52:33.507Z,49
2016-09-06T06:53:33.523Z,48.71
2016-09-06T06:54:33.834Z,49.19
2016-09-06T06:55:33.848Z,49.29
2016-09-06T06:56:33.854Z,48.81
2016-09-06T06:57:33.859Z,48.71
2016-09-06T06:58:33.877Z,49.1
2016-09-06T06:59:33.565Z,48.81
2016-09-06T07:00:33.573Z,48.9
2016-09-06T07:01:33.894Z,48.9
2016-09-06T07:02:34.553Z,49.68
2016-09-06T07:03:33.961Z,49.46
2016-09-06T07:04:33.979Z,49.07
2016-09-06T07:05:33.618Z,48.81
2016-09-06T07:06:33.941Z,48.71
2016-09-06T07:07:33.949Z,48.97
2016-09-06T07:08:33.950Z,49.37
2016-09-06T07:09:33.962Z,48.88
2016-09-06T07:10:33.969Z,49.27
2016-09-06T07:11:33.975Z,48.71
2016-09-06T07:12:33.719Z,49.46
2016-09-06T07:13:34.688Z,49.17
2016-09-06T07:14:33.684Z,48.97
2016-09-06T07:15:33.692Z,48.97
2016-09-06T07:16:34.013Z,49.07
2016-09-06T07:17:34.018Z,49.07
2016-09-06T07:18:34.028Z,49.1
2016-09-06T07:19:33.721Z,49.17
2016-09-06T07:20:33.728Z,49.46
2016-09-06T07:21:34.059Z,49.27
2016-09-06T07:22:34.061Z,48.88
2016-09-06T07:23:33.755Z,49.56
2016-09-06T07:24:35.077Z,48.97
2016-09-06T07:25:33.820Z,49.75
2016-09-06T07:26:34.091Z,49.56
2016-09-06T07:27:34.148Z,49.46
2016-09-06T07:28:34.107Z,49.65
2016-09-06T07:29:33.811Z,49.75
2016-09-06T07:30:33.813Z,49.65
2016-09-06T07:31:34.130Z,49.65
2016-09-06T07:32:34.137Z,49.56
2016-09-06T07:33:34.144Z,49.37
2016-09-06T07:34:33.888Z,49.56
2016-09-06T07:35:35.131Z,49.56
2016-09-06T07:36:33.858Z,49.56
2016-09-06T07:37:34.177Z,49.56
2016-09-06T07:38:34.183Z,49.46
2016-09-06T07:39:34.189Z,49.37
2016-09-06T07:40:33.884Z,49.56
2016-09-06T07:41:34.206Z,49.27
2016-09-06T07:42:34.211Z,49.65
2016-09-06T07:43:34.225Z,49.46
2016-09-06T07:44:33.972Z,49.75
2016-09-06T07:45:33.922Z,49.46
2016-09-06T07:46:33.931Z,49.56
2016-09-06T07:47:33.940Z,49.46
2016-09-06T07:48:34.259Z,49.37
2016-09-06T07:49:34.328Z,49.37
2016-09-06T07:50:34.275Z,49.56
2016-09-06T07:51:34.281Z,49.95
2016-09-06T07:52:34.291Z,50.14
2016-09-06T07:53:34.296Z,49.95
2016-09-06T07:54:34.305Z,50.04
2016-09-06T07:55:34.914Z,49.95
2016-09-06T07:56:34.318Z,50.04
2016-09-06T07:57:34.216Z,49.65
2016-09-06T07:58:34.020Z,49.95
2016-09-06T07:59:34.032Z,49.85
2016-09-06T08:00:34.401Z,49.27
2016-09-06T08:01:34.358Z,49.46
2016-09-06T08:02:34.367Z,49.85
2016-09-06T08:03:34.383Z,49.46
2016-09-06T08:04:34.381Z,49.27
2016-09-06T08:05:34.390Z,49.56
2016-09-06T08:06:35.094Z,49.27
2016-09-06T08:07:34.092Z,50.04
2016-09-06T08:08:34.699Z,49.75
2016-09-06T08:09:34.418Z,49.85
2016-09-06T08:10:34.429Z,49.95
2016-09-06T08:11:34.127Z,50.33
2016-09-06T08:12:34.230Z,49.95
2016-09-06T08:13:34.190Z,50.14
2016-09-06T08:14:34.458Z,50.04
2016-09-06T08:15:34.464Z,50.43
2016-09-06T08:16:34.470Z,49.85
2016-09-06T08:17:35.455Z,49.95
2016-09-06T08:18:34.486Z,50.43
2016-09-06T08:19:35.346Z,50.33
2016-09-06T08:20:34.199Z,50.72
2016-09-06T08:21:34.507Z,50.24
2016-09-06T08:22:34.202Z,50.52
2016-09-06T08:23:34.524Z,50.72
2016-09-06T08:24:34.533Z,50.52
2016-09-06T08:25:34.228Z,50.04
2016-09-06T08:26:34.948Z,51.01
2016-09-06T08:27:34.554Z,50.33
2016-09-06T08:28:34.562Z,49.77
2016-09-06T08:29:34.571Z,48.9
2016-09-06T08:30:34.579Z,48.64
2016-09-06T08:31:34.586Z,48.25
2016-09-06T08:32:34.283Z,48.54
2016-09-06T08:33:34.291Z,48.27
2016-09-06T08:34:34.300Z,48.27
2016-09-06T08:35:34.359Z,48.37
2016-09-06T08:36:34.631Z,47.6
2016-09-06T08:37:35.136Z,47.4
2016-09-06T08:38:34.334Z,47.3
2016-09-06T08:39:34.543Z,47.4
2016-09-06T08:40:34.665Z,47.6
2016-09-06T08:41:34.727Z,47.69
2016-09-06T08:42:34.365Z,47.4
2016-09-06T08:43:34.430Z,47.4
2016-09-06T08:44:34.698Z,47.11
2016-09-06T08:45:34.705Z,46.92
2016-09-06T08:46:34.402Z,47.72
2016-09-06T08:47:34.731Z,47.5
2016-09-06T08:48:35.731Z,47.3
2016-09-06T08:49:34.791Z,47.3
2016-09-06T08:50:35.242Z,47.11
2016-09-06T08:51:34.806Z,47.72
2016-09-06T08:52:34.452Z,47.6
2016-09-06T08:53:34.822Z,47.89
2016-09-06T08:54:34.784Z,47.4
2016-09-06T08:55:34.790Z,47.2
2016-09-06T08:56:34.845Z,47.6
2016-09-06T08:57:34.493Z,48.37
2016-09-06T08:58:34.499Z,48.18
2016-09-06T08:59:35.792Z,48.18
2016-09-06T09:00:34.830Z,48.54
2016-09-06T09:01:35.642Z,48.25
2016-09-06T09:02:34.847Z,48.54
2016-09-06T09:03:34.857Z,48.83
2016-09-06T09:04:34.913Z,48.83
2016-09-06T09:05:34.870Z,48.74
2016-09-06T09:06:34.892Z,48.64
2016-09-06T09:07:34.916Z,48.74
2016-09-06T09:08:34.947Z,48.44
2016-09-06T09:09:34.592Z,48.54
2016-09-06T09:10:34.919Z,48.64
2016-09-06T09:11:34.923Z,48.74
2016-09-06T09:12:34.617Z,48.25
2016-09-06T09:13:34.937Z,48.74
2016-09-06T09:14:34.631Z,48.25
2016-09-06T09:15:34.952Z,48.35
2016-09-06T09:16:34.648Z,48.35
2016-09-06T09:17:34.705Z,48.74
2016-09-06T09:18:34.978Z,48.64
2016-09-06T09:19:34.986Z,48.54
2016-09-06T09:20:34.679Z,48.44
2016-09-06T09:21:35.003Z,48.35
2016-09-06T09:22:35.012Z,48.06
2016-09-06T09:23:35.018Z,48.25
2016-09-06T09:24:35.026Z,48.06
2016-09-06T09:25:34.726Z,48.64
2016-09-06T09:26:35.041Z,48.54
2016-09-06T09:27:34.737Z,48.64
2016-09-06T09:28:35.156Z,47.96
2016-09-06T09:29:35.064Z,48.64
2016-09-06T09:30:35.074Z,48.15
2016-09-06T09:31:35.082Z,48.06
2016-09-06T09:32:35.092Z,48.15
2016-09-06T09:33:35.097Z,47.96
2016-09-06T09:34:35.108Z,48.44
2016-09-06T09:35:35.113Z,47.57
2016-09-06T09:36:34.810Z,47.96
2016-09-06T09:37:34.870Z,47.77
2016-09-06T09:38:35.139Z,47.96
2016-09-06T09:39:35.146Z,47.86
2016-09-06T09:40:35.156Z,47.86
2016-09-06T09:41:34.850Z,47.86
2016-09-06T09:42:35.219Z,47.57
2016-09-06T09:43:35.816Z,48.44
2016-09-06T09:44:35.184Z,47.96
2016-09-06T09:45:34.883Z,48.35
2016-09-06T09:46:35.200Z,48.25
2016-09-06T09:47:35.209Z,48.25
2016-09-06T09:48:35.216Z,48.25
2016-09-06T09:49:35.225Z,48.06
2016-09-06T09:50:35.236Z,48.06
2016-09-06T09:51:34.932Z,48.25
2016-09-06T09:52:35.250Z,47.77
2016-09-06T09:53:34.944Z,48.25
2016-09-06T09:54:36.116Z,48.44
2016-09-06T09:55:34.960Z,48.25
2016-09-06T09:56:35.020Z,48.25
2016-09-06T09:57:35.290Z,47.86
2016-09-06T09:58:35.297Z,48.15
2016-09-06T09:59:35.306Z,47.96
2016-09-06T10:00:35.320Z,48.06
2016-09-06T10:01:35.007Z,47.77
2016-09-06T10:02:35.332Z,48.35
2016-09-06T10:03:35.340Z,48.44
2016-09-06T10:04:35.032Z,48.25
2016-09-06T10:05:35.352Z,48.44
2016-09-06T10:06:35.362Z,48.25
2016-09-06T10:07:35.457Z,47.77
2016-09-06T10:08:35.375Z,48.25
2016-09-06T10:09:35.072Z,48.25
2016-09-06T10:10:35.081Z,48.25
2016-09-06T10:11:35.087Z,48.54
2016-09-06T10:12:35.408Z,48.15
2016-09-06T10:13:35.101Z,47.96
2016-09-06T10:14:35.424Z,48.35
2016-09-06T10:15:35.431Z,48.06
2016-09-06T10:16:35.441Z,48.35
2016-09-06T10:17:35.134Z,47.86
2016-09-06T10:18:36.243Z,48.25
2016-09-06T10:19:35.469Z,48.35
2016-09-06T10:20:35.158Z,48.64
2016-09-06T10:21:35.480Z,47.86
2016-09-06T10:22:35.179Z,48.44
2016-09-06T10:23:35.494Z,48.06
2016-09-06T10:24:35.187Z,48.25
2016-09-06T10:25:35.198Z,48.54
2016-09-06T10:26:35.254Z,48.15
2016-09-06T10:27:35.525Z,48.15
2016-09-06T10:28:35.221Z,48.35
2016-09-06T10:29:35.555Z,48.44
2016-09-06T10:30:35.555Z,48.25
2016-09-06T10:31:35.658Z,48.25
2016-09-06T10:32:35.257Z,47.86
2016-09-06T10:33:35.577Z,48.44
2016-09-06T10:34:35.579Z,48.64
2016-09-06T10:35:35.588Z,48.44
2016-09-06T10:36:35.593Z,48.44
2016-09-06T10:38:36.112Z,48.44
2016-09-06T10:39:35.360Z,48.54
2016-09-06T10:40:35.628Z,48.44
2016-09-06T10:41:35.322Z,48.44
2016-09-06T10:42:35.379Z,48.64
2016-09-06T10:43:35.701Z,47.96
2016-09-06T10:44:35.347Z,48.25
2016-09-06T10:45:35.669Z,48.25
2016-09-06T10:46:35.675Z,48.25
2016-09-06T10:47:35.683Z,48.35
2016-09-06T10:48:35.384Z,48.15
2016-09-06T10:49:36.600Z,48.25
2016-09-06T10:50:35.397Z,48.15
2016-09-06T10:51:35.916Z,48.25
2016-09-06T10:52:35.724Z,48.15
2016-09-06T10:53:35.418Z,48.06
2016-09-06T10:54:35.736Z,47.86
2016-09-06T10:55:35.482Z,47.86
2016-09-06T10:56:35.761Z,48.44
2016-09-06T10:57:35.453Z,47.96
2016-09-06T10:58:35.778Z,48.15
2016-09-06T10:59:35.776Z,47.86
2016-09-06T11:00:36.940Z,48.44
2016-09-06T11:01:35.844Z,48.44
2016-09-06T11:02:36.303Z,48.35
2016-09-06T11:03:35.546Z,48.06
2016-09-06T11:04:35.507Z,47.67
2016-09-06T11:05:35.832Z,48.44
2016-09-06T11:06:35.526Z,48.25
2016-09-06T11:07:35.844Z,48.25
2016-09-06T11:08:35.586Z,48.15
2016-09-06T11:09:35.857Z,47.86
2016-09-06T11:10:35.867Z,48.44
2016-09-06T11:11:36.796Z,48.25
2016-09-06T11:12:35.881Z,47.77
2016-09-06T11:13:36.544Z,48.25
2016-09-06T11:14:35.586Z,48.35
2016-09-06T11:15:35.643Z,47.96
2016-09-06T11:16:35.918Z,48.25
2016-09-06T11:17:35.609Z,47.77
2016-09-06T11:18:35.929Z,48.44
2016-09-06T11:19:35.628Z,48.25
2016-09-06T11:20:35.944Z,48.44
2016-09-06T11:21:35.692Z,48.06
2016-09-06T11:22:35.960Z,47.67
2016-09-06T11:23:35.970Z,47.67
2016-09-06T11:24:37.075Z,47.57
2016-09-06T11:25:35.673Z,48.06
2016-09-06T11:26:35.684Z,47.77
2016-09-06T11:27:35.689Z,48.15
2016-09-06T11:28:36.009Z,46.99
2016-09-06T11:29:36.067Z,47.47
2016-09-06T11:30:36.025Z,47.96
2016-09-06T11:31:36.034Z,48.15
2016-09-06T11:32:35.831Z,47.67
2016-09-06T11:33:36.050Z,47.77
2016-09-06T11:34:36.109Z,47.77
2016-09-06T11:35:35.753Z,47.67
2016-09-06T11:36:36.075Z,48.06
2016-09-06T11:37:36.084Z,47.67
2016-09-06T11:38:36.141Z,47.47
2016-09-06T11:39:36.095Z,47.47
2016-09-06T11:40:36.107Z,47.38
2016-09-06T11:41:35.799Z,47.57
2016-09-06T11:42:35.858Z,47.38
2016-09-06T11:43:35.866Z,47.38
2016-09-06T11:44:36.189Z,47.38
2016-09-06T11:45:35.832Z,47.67
2016-09-06T11:46:35.840Z,47.67
2016-09-06T11:47:35.848Z,47.86
2016-09-06T11:48:35.858Z,47.47
2016-09-06T11:49:36.177Z,47.86
2016-09-06T11:50:36.185Z,47.57
2016-09-06T11:51:35.880Z,47.09
2016-09-06T11:52:36.256Z,47.38
2016-09-06T11:53:36.209Z,47.57
2016-09-06T11:54:35.905Z,47.38
2016-09-06T11:55:36.665Z,47.28
2016-09-06T11:56:36.235Z,47.67
2016-09-06T11:57:35.932Z,47.67
2016-09-06T11:58:36.255Z,46.89
2016-09-06T11:59:35.945Z,47.09
2016-09-06T12:00:35.953Z,47.09
2016-09-06T12:01:36.278Z,46.99
2016-09-06T12:02:35.970Z,46.99
2016-09-06T12:03:36.338Z,46.99
2016-09-06T12:04:36.296Z,46.99
2016-09-06T12:05:36.356Z,47.28
2016-09-06T12:06:36.002Z,47.47
2016-09-06T12:07:36.327Z,47.19
2016-09-06T12:08:36.579Z,47.19
2016-09-06T12:09:36.334Z,47.47
2016-09-06T12:10:36.086Z,47.19
2016-09-06T12:11:36.353Z,46.89
2016-09-06T12:12:36.047Z,47.28
2016-09-06T12:13:36.383Z,47.28
2016-09-06T12:14:36.378Z,46.99
2016-09-06T12:15:36.381Z,47.28
2016-09-06T12:16:36.080Z,46.99
2016-09-06T12:17:36.087Z,46.89
2016-09-06T12:18:36.146Z,47.09
2016-09-06T12:19:36.605Z,46.99
2016-09-06T12:20:36.162Z,47.28
2016-09-06T12:21:36.119Z,47.28
2016-09-06T12:22:36.227Z,47.09
2016-09-06T12:23:36.446Z,46.99
2016-09-06T12:24:36.143Z,47.38
2016-09-06T12:25:36.149Z,47.19
2016-09-06T12:26:36.472Z,47.09
2016-09-06T12:27:36.529Z,47.38
2016-09-06T12:28:38.241Z,47.19
2016-09-06T12:29:36.492Z,47.19
2016-09-06T12:30:37.404Z,46.99
2016-09-06T12:31:36.198Z,47.47
2016-09-06T12:32:36.518Z,47.38
2016-09-06T12:33:36.214Z,47.19
2016-09-06T12:34:36.218Z,47.19
2016-09-06T12:35:36.230Z,47.09
2016-09-06T12:36:36.285Z,47.19
2016-09-06T12:37:36.557Z,47.19
2016-09-06T12:38:36.573Z,47.19
2016-09-06T12:39:36.573Z,46.89
2016-09-06T12:40:36.583Z,46.89
2016-09-06T12:41:37.429Z,46.8
2016-09-06T12:42:36.282Z,47.09
2016-09-06T12:43:36.295Z,47.19
2016-09-06T12:44:36.302Z,46.89
2016-09-06T12:45:36.312Z,46.99
2016-09-06T12:46:36.316Z,46.99
2016-09-06T12:47:36.640Z,46.89
2016-09-06T12:48:36.654Z,47.28
2016-09-06T12:49:36.701Z,46.8
2016-09-06T12:50:36.662Z,46.8
2016-09-06T12:51:36.354Z,46.89
2016-09-06T12:52:36.364Z,46.89
2016-09-06T12:53:37.441Z,46.99
2016-09-06T12:54:36.693Z,46.7
2016-09-06T12:55:36.700Z,46.99
2016-09-06T12:56:36.447Z,46.99